.
WxDataArchive / Data Records for 2008-02-19
2008-02-18 February 2008 2008-02-20

Data Records for Tuesday, 19 February 2008

Time	Temp	Chill	HIndex	Humid	Dewpt	 Wind 	HiWind	WindDir	Rain 	Barom 
-----	----	-----	------	-----	-----	------	------	-------	-----	----- 
00:00	16.7	10.4	16.7	59	4.9	4	10	270	0.00	29.829 
00:05	16.7	9.1	16.7	59	4.9	5	15	270	0.00	29.831 
00:10	16.7	10.4	16.7	60	5.3	4	9	270	0.00	29.832 
00:15	16.7	9.1	16.7	58	4.5	5	15	270	0.00	29.829 
00:20	16.9	9.3	16.9	60	5.4	5	16	270	0.00	29.835 
00:25	16.7	7.1	16.7	57	4.1	7	23	270	0.00	29.831 
00:30	16.7	8.0	16.7	56	3.8	6	14	270	0.00	29.828 
00:35	16.5	8.9	16.5	55	3.2	5	16	270	0.00	29.830 
00:40	16.4	7.7	16.4	55	3.1	6	19	270	0.00	29.832 
00:45	16.2	7.4	16.2	56	3.3	6	17	270	0.00	29.829 
00:50	16.2	9.8	16.2	57	3.7	4	12	270	0.00	29.831 
00:55	16.1	16.1	16.1	57	3.6	3	10	270	0.00	29.829 
01:00	16.1	8.4	16.1	56	3.2	5	24	270	0.00	29.830 
01:05	15.9	7.1	15.9	53	1.8	6	13	270	0.00	29.828 
01:10	15.7	7.9	15.7	54	2.0	5	12	270	0.00	29.831 
01:15	15.7	9.2	15.7	54	2.0	4	10	270	0.00	29.830 
01:20	15.6	15.6	15.6	55	2.3	3	11	292	0.00	29.833 
01:25	15.4	8.9	15.4	56	2.5	4	11	270	0.00	29.835 
01:30	15.4	15.4	15.4	56	2.5	3	9	270	0.00	29.835 
01:35	15.4	15.4	15.4	57	2.9	3	7	270	0.00	29.837 
01:40	15.4	15.4	15.4	58	3.3	2	6	270	0.00	29.839 
01:45	15.1	8.6	15.1	58	3.0	4	10	270	0.00	29.841 
01:50	14.6	8.0	14.6	57	2.2	4	8	270	0.00	29.839 
01:55	14.1	7.4	14.1	58	2.1	4	11	270	0.00	29.845 
02:00	14.0	7.3	14.0	58	2.0	4	13	270	0.00	29.847 
02:05	13.6	13.6	13.6	60	2.3	3	7	270	0.00	29.852 
02:10	13.5	13.5	13.5	60	2.2	3	6	270	0.00	29.856 
02:15	13.1	6.2	13.1	60	1.9	4	10	270	0.00	29.859 
02:20	12.6	12.6	12.6	60	1.4	3	9	270	0.00	29.860 
02:25	12.4	12.4	12.4	62	1.9	3	9	270	0.00	29.864 
02:30	12.1	12.1	12.1	64	2.3	3	6	270	0.00	29.865 
02:35	11.6	11.6	11.6	65	2.1	2	7	270	0.00	29.868 
02:40	11.4	11.4	11.4	65	2.0	1	5	270	0.00	29.872 
02:45	11.2	11.2	11.2	65	1.8	2	5	270	0.00	29.873 
02:50	11.2	11.2	11.2	65	1.8	2	5	270	0.00	29.874 
02:55	11.2	11.2	11.2	65	1.8	2	6	270	0.00	29.875 
03:00	11.1	11.1	11.1	65	1.7	2	7	270	0.00	29.874 
03:05	11.1	11.1	11.1	65	1.7	2	7	270	0.00	29.879 
03:10	10.9	10.9	10.9	62	0.5	3	7	270	0.00	29.881 
03:15	10.7	10.7	10.7	62	0.3	3	9	270	0.00	29.882 
03:20	10.5	3.2	10.5	62	0.1	4	11	270	0.00	29.882 
03:25	10.5	10.5	10.5	62	0.1	3	7	270	0.00	29.885 
03:30	10.5	10.5	10.5	61	-0.3	3	9	270	0.00	29.889 
03:35	10.4	3.1	10.4	59	-1.1	4	9	270	0.00	29.892 
03:40	10.4	10.4	10.4	61	-0.3	3	8	292	0.00	29.895 
03:45	10.0	10.0	10.0	60	-1.1	3	7	270	0.00	29.895 
03:50	9.9	1.1	9.9	60	-1.2	5	16	270	0.00	29.896 
03:55	9.9	2.5	9.9	61	-0.8	4	12	270	0.00	29.897 
04:00	9.7	2.3	9.7	62	-0.7	4	12	270	0.00	29.898 
04:05	9.7	9.7	9.7	62	-0.7	3	10	270	0.00	29.901 
04:10	9.9	9.9	9.9	63	-0.1	1	4	270	0.00	29.901 
04:15	9.9	9.9	9.9	65	0.5	2	6	270	0.00	29.902 
04:20	9.9	9.9	9.9	63	-0.1	3	7	270	0.00	29.903 
04:25	9.9	9.9	9.9	62	-0.5	2	12	270	0.00	29.901 
04:30	9.7	9.7	9.7	60	-1.4	3	9	270	0.00	29.902 
04:35	9.7	2.3	9.7	60	-1.4	4	13	270	0.00	29.905 
04:40	9.5	9.5	9.5	60	-1.5	3	7	270	0.00	29.906 
04:45	9.5	9.5	9.5	60	-1.5	2	7	270	0.00	29.909 
04:50	9.3	9.3	9.3	61	-1.4	3	13	270	0.00	29.912 
04:55	9.3	1.9	9.3	61	-1.4	4	10	270	0.00	29.911 
05:00	9.3	9.3	9.3	63	-0.7	2	6	248	0.00	29.913 
05:05	9.3	9.3	9.3	63	-0.7	2	5	270	0.00	29.918 
05:10	9.3	1.9	9.3	62	-1.0	4	11	270	0.00	29.918 
05:15	9.3	9.3	9.3	61	-1.4	3	11	270	0.00	29.922 
05:20	9.3	9.3	9.3	62	-1.0	3	7	270	0.00	29.923 
05:25	9.3	9.3	9.3	62	-1.0	3	9	270	0.00	29.922 
05:30	9.5	9.5	9.5	63	-0.5	2	8	270	0.00	29.923 
05:35	9.5	9.5	9.5	63	-0.5	3	11	270	0.00	29.927 
05:40	9.5	9.5	9.5	64	-0.2	3	9	270	0.00	29.931 
05:45	9.3	9.3	9.3	65	-0.0	3	10	270	0.00	29.931 
05:50	9.5	9.5	9.5	66	0.5	2	10	270	0.00	29.933 
05:55	9.5	9.5	9.5	68	1.1	2	7	270	0.00	29.934 
06:00	9.5	9.5	9.5	68	1.1	2	7	270	0.00	29.934 
06:05	9.5	9.5	9.5	69	1.4	3	9	270	0.00	29.937 
06:10	9.5	9.5	9.5	69	1.4	3	9	270	0.00	29.937 
06:15	9.5	9.5	9.5	69	1.4	2	7	270	0.00	29.937 
06:20	9.5	9.5	9.5	72	2.3	2	9	248	0.00	29.939 
06:25	9.3	1.9	9.3	73	2.4	4	14	270	0.00	29.943 
06:30	9.0	9.0	9.0	74	2.4	2	6	248	0.00	29.944 
06:35	8.8	8.8	8.8	71	1.4	3	9	270	0.00	29.942 
06:40	8.6	8.6	8.6	70	0.9	3	9	248	0.00	29.944 
06:45	8.6	8.6	8.6	69	0.5	3	9	270	0.00	29.946 
06:50	8.6	8.6	8.6	70	0.9	2	10	270	0.00	29.947 
06:55	8.4	0.8	8.4	69	0.4	4	9	270	0.00	29.952 
07:00	8.4	8.4	8.4	68	0.0	3	9	270	0.00	29.953 
07:05	8.4	0.8	8.4	66	-0.6	4	12	248	0.00	29.952 
07:10	8.4	8.4	8.4	66	-0.6	3	10	270	0.00	29.954 
07:15	8.4	0.8	8.4	65	-0.9	4	10	270	0.00	29.956 
07:20	8.4	8.4	8.4	66	-0.6	2	11	270	0.00	29.955 
07:25	8.4	8.4	8.4	66	-0.6	3	7	270	0.00	29.957 
07:30	8.4	8.4	8.4	66	-0.6	3	13	270	0.00	29.963 
07:35	8.3	0.7	8.3	66	-0.7	4	10	270	0.00	29.965 
07:40	8.3	8.3	8.3	66	-0.7	3	12	270	0.00	29.968 
07:45	8.3	0.7	8.3	65	-1.0	4	11	270	0.00	29.969 
07:50	8.3	0.7	8.3	65	-1.0	4	10	270	0.00	29.969 
07:55	8.4	8.4	8.4	66	-0.6	3	6	270	0.00	29.970 
08:00	8.6	8.6	8.6	67	-0.1	3	10	248	0.00	29.968 
08:05	8.6	1.0	8.6	68	0.2	4	13	270	0.00	29.972 
08:10	8.8	8.8	8.8	68	0.4	3	12	270	0.00	29.981 
08:15	8.8	1.3	8.8	69	0.7	4	11	270	0.00	29.984 
08:20	9.0	9.0	9.0	70	1.2	3	6	270	0.00	29.985 
08:25	9.0	9.0	9.0	70	1.2	3	7	270	0.00	29.986 
08:30	9.0	0.1	9.0	69	0.9	5	13	270	0.00	29.988 
08:35	9.0	1.5	9.0	69	0.9	4	14	270	0.00	29.993 
08:40	9.0	9.0	9.0	67	0.3	3	10	270	0.00	29.993 
08:45	9.2	1.7	9.2	65	-0.1	4	13	270	0.00	29.998 
08:50	9.2	0.3	9.2	63	-0.8	5	11	270	0.00	30.000 
08:55	9.2	0.3	9.2	62	-1.1	5	14	270	0.00	30.002 
09:00	9.3	0.4	9.3	62	-1.0	5	11	270	0.00	30.002 
09:05	9.5	2.1	9.5	62	-0.9	4	13	270	0.00	30.005 
09:10	9.7	0.9	9.7	63	-0.3	5	15	270	0.00	30.007 
09:15	10.0	10.0	10.0	64	0.3	3	7	270	0.00	30.015 
09:20	10.2	1.5	10.2	62	-0.2	5	18	270	0.00	30.013 
09:25	10.2	2.9	10.2	63	0.1	4	12	270	0.00	30.015 
09:30	10.4	3.1	10.4	60	-0.7	4	11	270	0.00	30.017 
09:35	10.2	2.9	10.2	60	-0.9	4	11	270	0.00	30.018 
09:40	10.0	2.7	10.0	61	-0.7	4	12	270	0.00	30.021 
09:45	10.0	2.7	10.0	62	-0.4	4	13	270	0.00	30.024 
09:50	10.0	1.2	10.0	62	-0.4	5	13	270	0.00	30.026 
09:55	10.2	2.9	10.2	62	-0.2	4	11	270	0.00	30.028 
10:00	10.2	2.9	10.2	64	0.5	4	12	270	0.00	30.028 
10:05	10.4	1.7	10.4	62	-0.0	5	15	270	0.00	30.030 
10:10	10.9	3.7	10.9	62	0.5	4	12	270	0.00	30.031 
10:15	10.4	3.1	10.4	62	-0.0	4	11	270	0.00	30.033 
10:20	10.5	10.5	10.5	64	0.8	3	10	270	0.00	30.032 
10:25	11.2	4.0	11.2	62	0.8	4	11	270	0.00	30.033 
10:30	11.6	4.5	11.6	61	0.8	4	13	270	0.00	30.031 
10:35	11.7	11.7	11.7	62	1.2	3	7	270	0.00	30.035 
10:40	11.7	11.7	11.7	65	2.2	3	9	270	0.00	30.034 
10:45	11.7	4.6	11.7	64	1.9	4	11	270	0.00	30.037 
10:50	11.4	4.3	11.4	65	2.0	4	11	270	0.00	30.040 
10:55	12.1	12.1	12.1	65	2.6	3	7	248	0.00	30.037 
11:00	12.6	5.7	12.6	64	2.8	4	14	270	0.00	30.039 
11:05	12.6	4.3	12.6	61	1.7	5	12	270	0.00	30.040 
11:10	12.4	5.4	12.4	61	1.5	4	17	270	0.00	30.044 
11:15	12.8	5.9	12.8	62	2.3	4	10	270	0.00	30.040 
11:20	12.6	4.3	12.6	60	1.4	5	12	270	0.00	30.043 
11:25	12.9	6.0	12.9	62	2.4	4	10	270	0.00	30.041 
11:30	13.6	13.6	13.6	62	3.0	3	10	270	0.00	30.044 
11:35	13.8	13.8	13.8	63	3.6	3	7	270	0.00	30.042 
11:40	13.8	7.1	13.8	61	2.9	4	13	270	0.00	30.043 
11:45	13.3	4.0	13.3	61	2.4	6	15	248	0.00	30.045 
11:50	13.8	13.8	13.8	62	3.2	3	11	270	0.00	30.047 
11:55	13.6	6.8	13.6	59	2.0	4	10	270	0.00	30.047 
12:00	13.5	5.3	13.5	59	1.9	5	12	270	0.00	30.048 
12:05	13.6	6.8	13.6	60	2.3	4	12	270	0.00	30.047 
12:10	14.0	5.9	14.0	60	2.7	5	15	270	0.00	30.048 
12:15	14.4	7.7	14.4	59	2.7	4	7	270	0.00	30.046 
12:20	14.9	8.3	14.9	60	3.6	4	10	270	0.00	30.047 
12:25	14.3	14.3	14.3	59	2.6	3	6	270	0.00	30.048 
12:30	14.4	14.4	14.4	60	3.1	3	14	270	0.00	30.048 
12:35	14.6	14.6	14.6	60	3.3	2	7	248	0.00	30.047 
12:40	14.9	14.9	14.9	60	3.6	3	6	270	0.00	30.047 
12:45	14.6	14.6	14.6	60	3.3	3	8	270	0.00	30.050 
12:50	14.6	14.6	14.6	60	3.3	3	6	270	0.00	30.049 
12:55	14.9	8.3	14.9	60	3.6	4	13	270	0.00	30.053 
13:00	14.9	14.9	14.9	61	3.9	3	11	270	0.00	30.052 
13:05	15.4	15.4	15.4	60	4.0	2	6	270	0.00	30.052 
13:10	15.4	7.6	15.4	58	3.3	5	12	270	0.00	30.055 
13:15	15.9	15.9	15.9	60	4.5	3	11	270	0.00	30.052 
13:20	15.9	8.2	15.9	59	4.1	5	13	270	0.00	30.055 
13:25	15.7	9.2	15.7	58	3.6	4	14	270	0.00	30.054 
13:30	15.4	8.9	15.4	58	3.3	4	13	248	0.00	30.055 
13:35	15.6	15.6	15.6	60	4.2	3	13	270	0.00	30.058 
13:40	15.6	9.1	15.6	60	4.2	4	11	270	0.00	30.059 
13:45	15.7	15.7	15.7	59	4.0	3	7	270	0.00	30.054 
13:50	15.7	15.7	15.7	59	4.0	3	7	270	0.00	30.053 
13:55	16.2	16.2	16.2	59	4.4	3	10	270	0.00	30.051 
14:00	16.5	16.5	16.5	58	4.3	2	6	270	0.00	30.050 
14:05	16.5	16.5	16.5	58	4.3	3	10	270	0.00	30.051 
14:10	16.5	16.5	16.5	58	4.3	3	7	270	0.00	30.049 
14:15	16.4	16.4	16.4	58	4.2	3	9	270	0.00	30.051 
14:20	16.1	8.4	16.1	58	4.0	5	15	270	0.00	30.050 
14:25	15.9	9.5	15.9	59	4.1	4	14	270	0.00	30.050 
14:30	16.1	16.1	16.1	59	4.3	3	10	270	0.00	30.048 
14:35	16.4	16.4	16.4	58	4.2	2	7	248	0.00	30.049 
14:40	16.2	16.2	16.2	58	4.1	3	10	270	0.00	30.049 
14:45	15.9	9.5	15.9	58	3.8	4	10	270	0.00	30.050 
14:50	15.7	7.9	15.7	57	3.2	5	15	270	0.00	30.050 
14:55	15.6	7.8	15.6	58	3.5	5	12	248	0.00	30.047 
15:00	15.6	7.8	15.6	58	3.5	5	16	270	0.00	30.050 
15:05	15.6	7.8	15.6	58	3.5	5	13	270	0.00	30.050 
15:10	15.7	15.7	15.7	59	4.0	3	10	248	0.00	30.050 
15:15	15.7	9.2	15.7	59	4.0	4	16	270	0.00	30.050 
15:20	15.6	15.6	15.6	60	4.2	3	12	270	0.00	30.050 
15:25	15.7	9.2	15.7	60	4.3	4	12	270	0.00	30.050 
15:30	15.6	7.8	15.6	58	3.5	5	16	248	0.00	30.050 
15:35	15.7	15.7	15.7	59	4.0	2	9	270	0.00	30.049 
15:40	15.7	15.7	15.7	58	3.6	3	11	270	0.00	30.049 
15:45	15.7	15.7	15.7	59	4.0	3	10	248	0.00	30.050 
15:50	15.7	15.7	15.7	59	4.0	3	10	270	0.00	30.048 
15:55	15.9	15.9	15.9	58	3.8	3	8	248	0.00	30.049 
16:00	15.6	9.1	15.6	58	3.5	4	11	270	0.00	30.049 
16:05	15.2	8.7	15.2	63	4.9	4	12	270	0.00	30.052 
16:10	15.1	8.6	15.1	65	5.5	4	12	248	0.00	30.051 
16:15	15.1	15.1	15.1	65	5.5	2	6	248	0.00	30.049 
16:20	15.2	15.2	15.2	65	5.6	1	9	270	0.00	30.047 
16:25	15.4	15.4	15.4	63	5.1	3	9	270	0.00	30.049 
16:30	15.4	15.4	15.4	65	5.8	2	10	270	0.00	30.046 
16:35	15.4	15.4	15.4	64	5.4	3	7	270	0.00	30.047 
16:40	15.4	15.4	15.4	66	6.1	3	10	248	0.00	30.049 
16:45	15.2	7.3	15.2	63	4.9	5	12	248	0.00	30.047 
16:50	15.2	7.3	15.2	62	4.6	5	14	270	0.00	30.047 
16:55	15.1	7.2	15.1	60	3.7	5	11	270	0.00	30.049 
17:00	14.8	8.2	14.8	63	4.5	4	12	270	0.00	30.051 
17:05	14.8	8.2	14.8	65	5.2	4	13	270	0.00	30.051 
17:10	14.8	14.8	14.8	65	5.2	2	9	248	0.00	30.050 
17:15	14.9	14.9	14.9	63	4.6	2	9	270	0.00	30.049 
17:20	15.1	15.1	15.1	61	4.1	2	10	248	0.00	30.048 
17:25	14.9	8.3	14.9	60	3.6	4	12	270	0.00	30.050 
17:30	15.2	15.2	15.2	61	4.2	1	4	248	0.00	30.051 
17:35	15.1	15.1	15.1	60	3.7	2	9	270	0.00	30.051 
17:40	15.1	15.1	15.1	61	4.1	3	12	270	0.00	30.051 
17:45	14.9	7.0	14.9	57	2.5	5	13	248	0.00	30.051 
17:50	15.1	8.6	15.1	58	3.0	4	16	270	0.00	30.052 
17:55	14.9	14.9	14.9	59	3.2	3	9	270	0.00	30.052 
18:00	14.9	14.9	14.9	60	3.6	1	7	248	0.00	30.051 
18:05	14.9	14.9	14.9	60	3.6	2	6	248	0.00	30.053 
18:10	15.1	15.1	15.1	60	3.7	2	6	248	0.00	30.053 
18:15	15.1	15.1	15.1	60	3.7	3	9	248	0.00	30.054 
18:20	15.1	15.1	15.1	60	3.7	2	5	248	0.00	30.055 
18:25	14.9	8.3	14.9	61	3.9	4	12	248	0.00	30.055 
18:30	14.9	14.9	14.9	62	4.3	2	9	248	0.00	30.059 
18:35	14.9	14.9	14.9	61	3.9	3	9	248	0.00	30.061 
18:40	14.9	14.9	14.9	61	3.9	1	5	248	0.00	30.061 
18:45	15.1	15.1	15.1	61	4.1	3	10	248	0.00	30.064 
18:50	15.1	15.1	15.1	62	4.5	3	10	248	0.00	30.064 
18:55	15.1	15.1	15.1	63	4.8	2	9	270	0.00	30.067 
19:00	15.1	8.6	15.1	62	4.5	4	7	248	0.00	30.068 
19:05	15.1	15.1	15.1	63	4.8	3	9	270	0.00	30.066 
19:10	15.1	8.6	15.1	63	4.8	4	13	270	0.00	30.067 
19:15	15.1	15.1	15.1	62	4.5	3	10	270	0.00	30.067 
19:20	14.9	14.9	14.9	63	4.6	3	7	248	0.00	30.068 
19:25	14.8	14.8	14.8	63	4.5	3	10	248	0.00	30.068 
19:30	14.8	14.8	14.8	63	4.5	2	10	270	0.00	30.068 
19:35	14.6	14.6	14.6	64	4.7	3	9	248	0.00	30.068 
19:40	14.6	14.6	14.6	64	4.7	3	11	248	0.00	30.069 
19:45	14.6	8.0	14.6	64	4.7	4	10	270	0.00	30.068 
19:50	14.6	14.6	14.6	65	5.0	2	5	248	0.00	30.068 
19:55	14.6	14.6	14.6	66	5.3	2	11	248	0.00	30.067 
20:00	14.4	14.4	14.4	68	5.8	1	7	248	0.00	30.067 
20:05	14.4	14.4	14.4	69	6.1	1	4	248	0.00	30.068 
20:10	14.3	14.3	14.3	69	6.0	1	3	248	0.00	30.063 
20:15	14.1	14.1	14.1	70	6.1	1	5	248	0.00	30.066 
20:20	14.1	14.1	14.1	71	6.5	1	3	225	0.00	30.067 
20:25	14.1	14.1	14.1	71	6.5	1	3	248	0.00	30.067 
20:30	14.0	14.0	14.0	71	6.4	0	2	248	0.00	30.069 
20:35	14.0	14.0	14.0	71	6.4	1	3	248	0.00	30.070 
20:40	14.1	14.1	14.1	71	6.5	2	6	248	0.00	30.069 
20:45	14.1	14.1	14.1	71	6.5	1	7	248	0.00	30.069 
20:50	14.1	14.1	14.1	71	6.5	1	6	248	0.00	30.067 
20:55	14.1	14.1	14.1	71	6.5	1	5	248	0.00	30.067 
21:00	14.0	14.0	14.0	71	6.4	1	4	248	0.00	30.067 
21:05	14.0	14.0	14.0	71	6.4	1	3	248	0.00	30.063 
21:10	14.0	14.0	14.0	71	6.4	1	4	248	0.00	30.063 
21:15	14.0	14.0	14.0	70	6.0	1	4	248	0.00	30.064 
21:20	14.0	14.0	14.0	70	6.0	1	5	248	0.00	30.065 
21:25	14.0	14.0	14.0	70	6.0	0	3	225	0.00	30.062 
21:30	14.0	14.0	14.0	71	6.4	0	2	248	0.00	30.062 
21:35	14.0	14.0	14.0	71	6.4	1	3	248	0.00	30.060 
21:40	14.0	14.0	14.0	71	6.4	1	6	248	0.00	30.058 
21:45	14.0	14.0	14.0	71	6.4	1	5	248	0.00	30.056 
21:50	14.0	14.0	14.0	71	6.4	0	2	248	0.00	30.056 
21:55	13.8	13.8	13.8	71	6.2	1	6	248	0.00	30.055 
22:00	13.8	13.8	13.8	72	6.5	1	3	248	0.00	30.055 
22:05	13.8	13.8	13.8	72	6.5	0	2	248	0.00	30.051 
22:10	13.8	13.8	13.8	72	6.5	0	6	248	0.00	30.053 
22:15	13.6	13.6	13.6	73	6.6	0	4	248	0.00	30.054 
22:20	13.6	13.6	13.6	73	6.6	0	3	248	0.00	30.055 
22:25	13.5	13.5	13.5	73	6.5	0	1	248	0.00	30.057 
22:30	13.5	13.5	13.5	74	6.8	0	2	248	0.00	30.053 
22:35	13.5	13.5	13.5	74	6.8	0	3	248	0.00	30.053 
22:40	13.5	13.5	13.5	74	6.8	0	3	248	0.00	30.054 
22:45	13.5	13.5	13.5	75	7.1	0	2	248	0.00	30.054 
22:50	13.5	13.5	13.5	75	7.1	0	3	248	0.00	30.054 
22:55	13.5	13.5	13.5	75	7.1	0	2	248	0.00	30.055 
23:00	13.5	13.5	13.5	75	7.1	1	5	248	0.00	30.054 
23:05	13.5	13.5	13.5	75	7.1	0	2	248	0.00	30.051 
23:10	13.5	13.5	13.5	76	7.4	0	2	248	0.00	30.057 
23:15	13.5	13.5	13.5	76	7.4	0	4	248	0.00	30.058 
23:20	13.5	13.5	13.5	76	7.4	0	3	248	0.00	30.056 
23:25	13.3	13.3	13.3	76	7.2	0	2	225	0.00	30.059 
23:30	13.5	13.5	13.5	76	7.4	1	2	248	0.00	30.059 
23:35	13.5	13.5	13.5	77	7.7	0	2	248	0.00	30.060 
23:40	13.6	13.6	13.6	77	7.8	1	6	248	0.00	30.055 
23:45	13.8	13.8	13.8	77	7.9	1	5	248	0.00	30.056 
23:50	13.8	13.8	13.8	77	7.9	1	3	225	0.00	30.051 
23:55	14.0	14.0	14.0	76	7.9	1	3	248	0.00	30.049 

CoCoRaHS
IN-AL-39
A2 Web Hosting
Creative Commons License
GoDaddy
Look for:

loaded 2017-10-18 22:23:17 • last modified 2010-11-18 10:43:29
Privacy PolicyDisclaimer
• wx.awcolley.com is powered by PmWiki v.2002016 •
• all content (unless otherwise noted) © 2017 A W Colley